Terminal Aerodrome Forecast
Issued by NWS Indianapolis, IN

Home | Current Version | Previous Version | Text Only | Print | Product List | Glossary On
Versions: 1 2 3 4 5 6 7 8 9 10 11 12 13 14 15 16 17 18 19 20 21 22 23 24
000
FTUS43 KIND 281410 AAC
TAFIND
TAF AMD
KIND 281410Z 2814/2918 25006KT P6SM SCT015 BKN080
      TEMPO 2814/2817 BKN015 OVC080
     FM281900 24004KT P6SM VCTS BKN030CB
     FM290300 21004KT P6SM BKN040
     FM291000 24003KT 4SM BR SCT040 BKN100
     FM291400 26005KT P6SM BKN030=

USA.gov is the U.S. government's official web portal to all federal, state and local government web resources and services.